Time;durP1;ratioP1;P1;durP2;ratioP2;P2;SDS_P1;SDS_P2;PMS_P1;PMS_P2;Temp;Humidity;BMP_temperature;BMP_pressure;BME280_temperature;BME280_humidity;BME280_pressure;Samples;Min_cycle;Max_cycle;Signal;HPM_P1;HPM_P2
2021/12/11 00:00:30;;;;;;;42.53;27.35;;;;;;;1.97;85.73;99012.42;2883815;82;21024;-74
2021/12/11 00:04:38;;;;;;;43.20;25.27;;;;;;;2.08;85.74;99009.91;2883436;82;20999;-73
2021/12/11 00:08:44;;;;;;;48.20;30.00;;;;;;;2.12;85.52;99015.31;2883388;82;21056;-74
2021/12/11 00:12:55;;;;;;;53.52;29.05;;;;;;;2.27;84.88;99011.29;2883524;82;21036;-73
2021/12/11 00:16:58;;;;;;;48.08;30.82;;;;;;;2.22;84.73;99012.08;2883339;82;20979;-74
2021/12/11 00:21:08;;;;;;;44.38;27.02;;;;;;;2.18;85.03;99004.05;2883298;82;20984;-74
2021/12/11 00:25:12;;;;;;;52.58;29.75;;;;;;;2.03;85.65;99012.01;2883044;82;21024;-74
2021/12/11 00:29:18;;;;;;;60.37;32.80;;;;;;;2.00;86.08;99013.53;2854282;82;21020;-74
2021/12/11 00:33:25;;;;;;;55.80;30.97;;;;;;;1.97;86.21;99016.36;2883245;82;21071;-70
2021/12/11 00:37:27;;;;;;;49.53;28.17;;;;;;;1.98;86.30;99020.66;2881292;82;21074;-74
2021/12/11 00:41:32;;;;;;;48.90;29.02;;;;;;;1.99;86.00;99021.03;2872525;83;21051;-74
2021/12/11 00:45:37;;;;;;;57.25;29.00;;;;;;;2.13;85.77;99026.66;2881205;82;21074;-74
2021/12/11 00:49:53;;;;;;;46.90;25.47;;;;;;;2.09;85.81;99029.95;2881512;82;21032;-73
2021/12/11 00:53:58;;;;;;;55.10;29.13;;;;;;;2.09;85.68;99031.27;2880944;82;21067;-74
2021/12/11 00:58:20;;;;;;;49.80;24.70;;;;;;;2.02;86.11;99036.56;2881528;82;21024;-74
2021/12/11 01:02:22;;;;;;;43.98;28.38;;;;;;;1.99;86.45;99043.33;2880338;82;21024;-73
2021/12/11 01:06:52;;;;;;;43.30;25.32;;;;;;;2.04;86.22;99053.48;2881254;81;21019;-73
2021/12/11 01:11:06;;;;;;;44.60;26.75;;;;;;;2.06;86.24;99055.08;2881074;82;20980;-73
2021/12/11 01:15:31;;;;;;;47.00;27.85;;;;;;;2.21;85.77;99058.45;2881210;82;21024;-74
2021/12/11 01:19:38;;;;;;;41.35;26.37;;;;;;;2.27;85.31;99063.77;2881272;82;20960;-73
2021/12/11 01:27:50;;;;;;;48.60;26.48;;;;;;;2.39;84.63;99072.14;2881479;82;21020;-73
2021/12/11 01:31:56;;;;;;;41.98;25.05;;;;;;;2.47;84.45;99078.65;2881184;82;21572;-73
2021/12/11 01:35:58;;;;;;;38.83;24.63;;;;;;;2.57;84.39;99083.17;2880739;82;21624;-74
2021/12/11 01:40:03;;;;;;;37.53;22.95;;;;;;;2.68;84.29;99081.61;2881038;82;20945;-74
2021/12/11 01:44:11;;;;;;;30.00;23.50;;;;;;;2.72;84.07;99080.45;2880778;82;21024;-69
2021/12/11 01:48:23;;;;;;;39.98;25.70;;;;;;;2.67;84.17;99092.58;2871869;83;21073;-75
2021/12/11 01:52:38;;;;;;;38.67;25.50;;;;;;;2.67;84.40;99096.52;2870863;82;20986;-75
2021/12/11 01:56:35;;;;;;;29.52;24.07;;;;;;;2.73;84.36;99098.34;2870182;82;21014;-75
2021/12/11 02:00:50;;;;;;;34.88;18.37;;;;;;;2.77;84.29;99105.92;2881201;82;21410;-73
2021/12/11 02:04:55;;;;;;;26.47;17.97;;;;;;;2.74;84.32;99122.34;2872607;83;21029;-74
2021/12/11 02:08:58;;;;;;;32.00;19.85;;;;;;;2.76;84.36;99123.11;2881084;82;20973;-73
2021/12/11 02:13:04;;;;;;;29.23;20.20;;;;;;;2.82;84.15;99128.77;2880934;82;21009;-75
2021/12/11 02:17:22;;;;;;;33.70;21.27;;;;;;;2.75;84.23;99140.64;2880736;82;21056;-74
2021/12/11 02:21:29;;;;;;;29.20;16.75;;;;;;;2.71;84.51;99140.00;2872029;83;21022;-74
2021/12/11 02:25:36;;;;;;;29.82;18.02;;;;;;;2.70;84.46;99150.13;2871611;82;21097;-75
2021/12/11 02:29:55;;;;;;;30.55;19.65;;;;;;;2.80;84.54;99150.35;2872057;82;21072;-76
2021/12/11 02:34:11;;;;;;;28.92;21.12;;;;;;;2.85;84.42;99157.47;2871579;82;20998;-76
2021/12/11 02:38:27;;;;;;;32.57;19.40;;;;;;;2.95;84.39;99166.88;2841583;81;21026;-75
2021/12/11 02:42:34;;;;;;;29.30;20.07;;;;;;;2.97;83.92;99166.30;2866952;83;20994;-73
2021/12/11 02:46:41;;;;;;;26.30;18.85;;;;;;;3.02;83.83;99167.77;2866514;83;21010;-76
2021/12/11 02:50:51;;;;;;;27.15;18.00;;;;;;;3.03;83.91;99179.95;2868247;83;20994;-74
2021/12/11 02:55:00;;;;;;;37.33;19.25;;;;;;;3.03;83.94;99191.29;2867741;83;20982;-75
2021/12/11 02:59:08;;;;;;;27.07;20.37;;;;;;;3.06;83.79;99188.48;2867655;83;21538;-75
2021/12/11 03:03:14;;;;;;;32.05;20.62;;;;;;;3.06;83.60;99204.70;2867715;83;21022;-74
2021/12/11 03:07:17;;;;;;;24.75;18.55;;;;;;;3.03;83.44;99210.17;2867819;83;20998;-75
2021/12/11 03:11:22;;;;;;;32.08;17.65;;;;;;;3.03;83.58;99223.30;2867444;83;20990;-75
2021/12/11 03:15:25;;;;;;;21.95;15.95;;;;;;;2.94;83.63;99232.65;2867589;83;20986;-75
2021/12/11 03:19:31;;;;;;;32.50;21.30;;;;;;;2.92;83.83;99243.73;2867463;83;21571;-74
2021/12/11 03:23:33;;;;;;;28.67;19.17;;;;;;;2.90;84.05;99243.83;2867622;83;21041;-75
2021/12/11 03:27:35;;;;;;;29.05;19.37;;;;;;;2.85;84.22;99246.78;2867237;83;21034;-74
2021/12/11 03:31:39;;;;;;;25.00;16.27;;;;;;;2.90;84.25;99254.33;2876151;82;20954;-73
2021/12/11 03:35:42;;;;;;;22.58;16.97;;;;;;;2.91;84.22;99259.95;2876763;82;21043;-73
2021/12/11 03:39:48;;;;;;;24.52;17.98;;;;;;;2.96;84.33;99268.84;2880040;82;21572;-76
2021/12/11 03:43:52;;;;;;;26.20;15.40;;;;;;;3.03;84.30;99267.97;2871553;83;21079;-76
2021/12/11 03:48:11;;;;;;;21.52;16.70;;;;;;;3.11;83.81;99280.11;2870972;83;21071;-76
2021/12/11 03:52:15;;;;;;;36.65;22.30;;;;;;;3.17;83.62;99286.75;2870812;82;21079;-75
2021/12/11 03:56:19;;;;;;;30.65;20.30;;;;;;;3.21;83.90;99287.77;2879740;82;21031;-75
2021/12/11 04:00:23;;;;;;;39.10;21.15;;;;;;;3.38;83.77;99302.38;2870873;83;21007;-76
2021/12/11 04:04:30;;;;;;;33.28;19.70;;;;;;;3.51;83.40;99309.45;2879814;82;21078;-76
2021/12/11 04:08:40;;;;;;;27.45;20.12;;;;;;;3.56;81.90;99312.14;2871093;83;21052;-75
2021/12/11 04:12:40;;;;;;;28.05;19.32;;;;;;;3.52;81.72;99326.91;2870338;82;21639;-76
2021/12/11 04:16:44;;;;;;;27.77;19.32;;;;;;;3.50;81.47;99325.69;2879659;82;21070;-77
2021/12/11 04:20:49;;;;;;;34.30;19.00;;;;;;;3.54;81.93;99332.45;2880460;82;20984;-76
2021/12/11 04:24:51;;;;;;;29.18;16.95;;;;;;;3.59;81.71;99332.59;2881154;82;21003;-74
2021/12/11 04:28:53;;;;;;;38.85;19.35;;;;;;;3.47;80.68;99346.93;2881019;82;21031;-75
2021/12/11 04:32:58;;;;;;;31.77;20.95;;;;;;;3.43;81.51;99345.46;2880204;82;20996;-75
2021/12/11 04:37:13;;;;;;;41.68;27.48;;;;;;;3.46;81.87;99347.05;2881091;82;21012;-74
2021/12/11 04:41:21;;;;;;;33.15;23.55;;;;;;;3.36;81.18;99350.28;2882647;82;20980;-74
2021/12/11 04:45:38;;;;;;;33.45;22.80;;;;;;;3.31;81.52;99359.41;2882624;82;21028;-74
2021/12/11 04:49:48;;;;;;;29.87;23.15;;;;;;;3.29;81.89;99365.62;2882274;82;21083;-75
2021/12/11 04:58:27;;;;;;;42.80;26.52;;;;;;;3.16;80.68;99373.11;2881933;82;21027;-74
2021/12/11 05:10:42;;;;;;;41.70;28.90;;;;;;;3.06;81.79;99409.66;2844901;82;21003;-74
2021/12/11 05:14:38;;;;;;;44.55;29.87;;;;;;;3.10;81.55;99421.19;2880297;82;20996;-74
2021/12/11 05:18:44;;;;;;;45.45;29.48;;;;;;;2.92;80.32;99422.37;2882542;82;21027;-75
2021/12/11 05:22:46;;;;;;;;;;;;;;;2.92;81.44;99429.77;2885004;82;21612;-74
2021/12/11 05:26:48;;;;;;;44.08;29.35;;;;;;;2.92;80.68;99431.08;2831176;84;20126;-74
2021/12/11 05:30:52;;;;;;;43.38;28.35;;;;;;;2.84;80.98;99430.25;2831285;84;21079;-74
2021/12/11 05:34:55;;;;;;;37.75;27.25;;;;;;;2.83;80.87;99431.68;2882697;82;21011;-74
2021/12/11 05:38:57;;;;;;;55.03;30.80;;;;;;;2.73;79.95;99431.88;2886578;82;21038;-73
2021/12/11 05:42:59;;;;;;;54.23;27.87;;;;;;;2.65;81.04;99434.98;2887496;82;21076;-74
2021/12/11 05:47:02;;;;;;;49.23;32.25;;;;;;;2.64;80.44;99445.11;2887880;82;21020;-73
2021/12/11 05:51:08;;;;;;;48.85;29.75;;;;;;;2.53;79.72;99451.03;2887939;82;21401;-75
2021/12/11 05:55:14;;;;;;;57.75;32.88;;;;;;;2.38;79.14;99461.55;2888202;82;21011;-75
2021/12/11 05:59:17;;;;;;;48.98;31.40;;;;;;;2.36;79.76;99467.37;2887450;82;21007;-76
2021/12/11 06:03:19;;;;;;;47.15;30.52;;;;;;;2.31;79.71;99481.70;2888159;82;21038;-75
2021/12/11 06:07:26;;;;;;;57.35;33.42;;;;;;;2.18;79.19;99487.68;2888094;82;21034;-75
2021/12/11 06:11:27;;;;;;;50.17;28.90;;;;;;;2.11;79.33;99493.76;2888229;82;21031;-75
2021/12/11 06:15:30;;;;;;;50.40;34.55;;;;;;;2.07;79.64;99497.50;2888410;82;21027;-74
2021/12/11 06:19:34;;;;;;;46.53;29.48;;;;;;;2.05;79.56;99507.25;2888537;82;21038;-74
2021/12/11 06:23:35;;;;;;;54.30;31.48;;;;;;;1.82;78.82;99513.37;2890427;81;20993;-73
2021/12/11 06:27:39;;;;;;;49.18;29.72;;;;;;;1.82;79.69;99519.93;2888978;82;21025;-75
2021/12/11 06:31:43;;;;;;;43.15;27.32;;;;;;;1.79;80.05;99521.87;2888456;82;21034;-74
2021/12/11 06:35:55;;;;;;;47.40;29.50;;;;;;;1.79;80.17;99527.98;2887967;82;21546;-74
2021/12/11 06:39:57;;;;;;;49.58;28.02;;;;;;;1.67;79.81;99529.98;2883246;82;21618;-75
2021/12/11 06:44:00;;;;;;;42.75;32.03;;;;;;;1.53;80.31;99534.70;2883200;82;21650;-73
2021/12/11 06:48:01;;;;;;;44.20;29.60;;;;;;;1.56;80.81;99544.53;2883054;82;21523;-74
2021/12/11 06:52:08;;;;;;;43.83;28.85;;;;;;;1.58;81.13;99547.56;2883150;82;21002;-74
2021/12/11 06:56:14;;;;;;;54.70;30.88;;;;;;;1.56;80.97;99547.63;2881368;82;21586;-74
2021/12/11 07:00:19;;;;;;;50.97;29.50;;;;;;;1.50;81.12;99559.30;2883308;82;21629;-74
2021/12/11 07:04:21;;;;;;;59.87;32.37;;;;;;;1.40;81.33;99577.80;2883665;82;21679;-74
2021/12/11 07:08:26;;;;;;;52.60;32.25;;;;;;;1.32;81.74;99580.83;2883012;82;21030;-74
2021/12/11 07:12:28;;;;;;;57.88;35.55;;;;;;;1.27;82.16;99584.15;2882629;82;20991;-73
2021/12/11 07:16:29;;;;;;;53.20;34.88;;;;;;;1.24;82.63;99582.56;2882555;82;21021;-74
2021/12/11 07:20:33;;;;;;;61.28;38.20;;;;;;;1.21;82.72;99597.14;2882728;82;21050;-74
2021/12/11 07:24:42;;;;;;;55.43;36.17;;;;;;;1.26;82.94;99600.35;2882425;82;21510;-74
2021/12/11 07:28:49;;;;;;;56.98;39.42;;;;;;;1.32;83.02;99603.11;2882387;82;21385;-75
2021/12/11 07:33:00;;;;;;;62.90;38.58;;;;;;;1.36;82.79;99618.18;2882555;81;20971;-75
2021/12/11 07:37:03;;;;;;;64.25;36.45;;;;;;;1.37;82.69;99623.35;2879984;82;21010;-74
2021/12/11 07:41:09;;;;;;;60.63;37.88;;;;;;;1.37;82.52;99627.28;2873923;82;21543;-75
2021/12/11 07:45:11;;;;;;;71.20;38.00;;;;;;;1.40;82.51;99638.08;2873710;82;21026;-75
2021/12/11 07:49:15;;;;;;;63.98;37.30;;;;;;;1.43;82.57;99648.39;2873687;82;20994;-75
2021/12/11 07:53:19;;;;;;;70.03;38.50;;;;;;;1.43;82.48;99661.49;2874285;82;21010;-75
2021/12/11 07:57:21;;;;;;;57.90;37.53;;;;;;;1.52;82.79;99679.81;2873877;82;21042;-75
2021/12/11 08:01:23;;;;;;;65.47;37.38;;;;;;;1.70;83.45;99674.02;2874450;82;21014;-72
2021/12/11 08:05:28;;;;;;;59.42;36.33;;;;;;;1.89;83.12;99674.31;2873802;82;21024;-75
2021/12/11 08:09:29;;;;;;;59.13;34.00;;;;;;;2.06;82.58;99685.17;2874362;81;21007;-75
2021/12/11 08:13:31;;;;;;;66.02;36.42;;;;;;;2.19;82.06;99697.98;2874012;82;21086;-75
2021/12/11 08:17:33;;;;;;;78.47;45.90;;;;;;;2.31;81.72;99703.00;2874320;82;21029;-75
2021/12/11 08:21:35;;;;;;;90.83;49.15;;;;;;;2.18;80.76;99716.46;2873994;82;21054;-75
2021/12/11 08:25:40;;;;;;;95.38;53.68;;;;;;;2.13;81.23;99724.58;2876399;82;21045;-72
2021/12/11 08:29:46;;;;;;;104.90;52.70;;;;;;;2.07;81.42;99731.49;2873996;82;21021;-74
2021/12/11 08:33:49;;;;;;;93.50;58.15;;;;;;;2.15;81.72;99737.15;2874193;82;21459;-75
2021/12/11 08:37:52;;;;;;;119.00;63.98;;;;;;;2.28;81.68;99742.55;2878877;82;21003;-73
2021/12/11 08:41:56;;;;;;;95.53;57.62;;;;;;;2.40;81.31;99751.06;2884553;82;21098;-74
2021/12/11 08:46:11;;;;;;;68.20;44.08;;;;;;;2.41;80.50;99761.94;2883653;82;21003;-74
2021/12/11 08:50:15;;;;;;;63.20;39.92;;;;;;;2.47;80.78;99769.08;2882861;82;21042;-75
2021/12/11 08:54:20;;;;;;;56.60;34.10;;;;;;;2.61;80.55;99777.03;2883457;82;20994;-75
2021/12/11 08:58:24;;;;;;;60.45;37.15;;;;;;;2.67;80.29;99781.92;2886411;81;21448;-72
2021/12/11 09:02:37;;;;;;;60.67;39.90;;;;;;;2.74;80.32;99788.99;2910279;81;21015;-71
2021/12/11 09:06:50;;;;;;;55.25;36.70;;;;;;;2.91;80.51;99796.38;2910963;81;21018;-74
2021/12/11 09:11:00;;;;;;;55.75;35.92;;;;;;;3.07;80.44;99800.26;2909307;81;20983;-74
2021/12/11 09:15:13;;;;;;;68.83;40.90;;;;;;;3.17;79.66;99814.57;2909795;81;21039;-70
2021/12/11 09:19:41;;;;;;;53.92;37.25;;;;;;;3.21;79.33;99813.90;2908876;81;21046;-75
2021/12/11 09:23:48;;;;;;;59.55;39.67;;;;;;;3.20;79.22;99817.02;2908992;81;21082;-74
2021/12/11 09:27:55;;;;;;;62.30;39.05;;;;;;;3.25;79.29;99823.33;2900265;81;21095;-75
2021/12/11 09:32:02;;;;;;;51.65;38.02;;;;;;;3.29;78.48;99833.55;2857391;83;21492;-74
2021/12/11 09:36:12;;;;;;;56.08;35.60;;;;;;;3.35;77.79;99837.60;2857340;83;21008;-75
2021/12/11 09:40:29;;;;;;;65.87;40.40;;;;;;;3.19;77.27;99845.55;2827408;83;21061;-74
2021/12/11 09:44:38;;;;;;;62.05;39.13;;;;;;;3.24;77.93;99854.01;2875399;82;21500;-71
2021/12/11 09:48:42;;;;;;;60.90;38.33;;;;;;;3.34;77.89;99857.40;2873767;82;21063;-74
2021/12/11 09:52:46;;;;;;;65.30;40.08;;;;;;;3.47;78.81;99864.95;2875276;82;21553;-74
2021/12/11 09:56:57;;;;;;;54.18;35.88;;;;;;;3.61;78.54;99869.39;2875474;82;21008;-73
2021/12/11 10:01:24;;;;;;;53.90;40.85;;;;;;;3.70;77.80;99883.33;2875597;82;21505;-74
2021/12/11 10:05:34;;;;;;;72.42;42.05;;;;;;;3.77;77.58;99895.64;2875314;82;20996;-74
2021/12/11 10:09:48;;;;;;;61.68;40.88;;;;;;;3.75;76.63;99894.89;2875785;82;21016;-72
2021/12/11 10:13:55;;;;;;;60.38;39.08;;;;;;;3.76;77.63;99905.80;2877594;82;20997;-75
2021/12/11 10:18:19;;;;;;;53.80;37.40;;;;;;;3.77;76.76;99906.17;2875653;82;20976;-74
2021/12/11 10:22:27;;;;;;;54.75;39.27;;;;;;;3.83;76.82;99902.30;2873025;82;21034;-75
2021/12/11 10:26:29;;;;;;;56.98;40.23;;;;;;;3.96;77.15;99905.06;2871981;82;21037;-72
2021/12/11 10:30:35;;;;;;;60.23;36.98;;;;;;;4.03;76.49;99911.64;2874739;82;21548;-75
2021/12/11 10:34:40;;;;;;;;;;;;;;;4.01;75.91;99906.94;2876091;82;20974;-76
2021/12/11 10:38:44;;;;;;;51.88;35.80;;;;;;;3.96;75.58;99911.65;2878247;81;20154;-75
2021/12/11 10:42:51;;;;;;;54.10;37.78;;;;;;;3.96;75.26;99919.55;2875047;81;21038;-75
2021/12/11 10:47:07;;;;;;;57.58;35.78;;;;;;;4.00;75.75;99914.47;2841051;81;21002;-77
2021/12/11 10:51:18;;;;;;;;;;;;;;;4.13;76.10;99911.93;2875422;81;21559;-74
2021/12/11 10:55:26;;;;;;;48.55;32.85;;;;;;;4.27;75.25;99917.66;2880968;81;20118;-73
2021/12/11 10:59:33;;;;;;;59.65;35.17;;;;;;;4.29;74.47;99929.80;2887465;81;20995;-72
2021/12/11 11:03:39;;;;;;;63.40;41.10;;;;;;;4.23;74.91;99938.55;2908652;81;21061;-72
2021/12/11 11:07:43;;;;;;;55.45;36.77;;;;;;;4.22;75.22;99948.70;2837138;84;21047;-72
2021/12/11 11:11:49;;;;;;;51.28;35.50;;;;;;;4.29;75.59;99950.87;2787540;85;21051;-72
2021/12/11 11:15:53;;;;;;;;;;;;;;;4.42;75.31;99960.17;2840538;82;20968;-70
2021/12/11 11:19:56;;;;;;;64.95;39.15;;;;;;;4.48;74.30;99958.95;2862125;81;20263;-72
2021/12/11 11:23:58;;;;;;;57.93;41.00;;;;;;;4.52;74.01;99967.50;2895337;81;21014;-69
2021/12/11 11:28:05;;;;;;;73.28;43.52;;;;;;;4.51;73.64;99971.08;2880707;82;21573;-72
2021/12/11 11:32:12;;;;;;;69.53;46.65;;;;;;;4.45;73.06;99980.68;2833622;84;21039;-74
2021/12/11 11:36:19;;;;;;;64.10;40.98;;;;;;;4.25;72.26;99982.28;2833892;84;21035;-68
2021/12/11 11:40:26;;;;;;;74.67;45.75;;;;;;;4.16;73.24;100003.05;2838584;84;21055;-71
2021/12/11 11:44:31;;;;;;;66.67;44.77;;;;;;;4.18;73.94;99994.59;2875130;82;29999;-71
2021/12/11 11:48:37;;;;;;;69.60;48.40;;;;;;;4.19;74.26;100005.50;2837530;84;21044;-68
2021/12/11 11:52:41;;;;;;;58.73;42.10;;;;;;;4.26;74.85;100010.76;2805726;82;21023;-72
2021/12/11 11:56:54;;;;;;;52.23;37.35;;;;;;;4.39;74.88;100010.41;2794541;85;21022;-74
2021/12/11 12:01:01;;;;;;;55.33;40.88;;;;;;;4.47;73.98;100024.89;2791384;85;21036;-75
2021/12/11 12:05:05;;;;;;;67.65;42.20;;;;;;;4.55;73.68;100034.51;2794653;85;20986;-71
2021/12/11 12:09:11;;;;;;;60.80;41.58;;;;;;;4.53;72.90;100041.66;2794368;85;21023;-74
2021/12/11 12:13:16;;;;;;;64.45;42.25;;;;;;;4.57;73.01;100047.94;2792965;85;21000;-74
2021/12/11 12:17:21;;;;;;;61.92;43.98;;;;;;;4.67;73.93;100056.63;2792491;85;21069;-75
2021/12/11 12:21:23;;;;;;;69.20;38.98;;;;;;;4.69;72.32;100058.69;2790910;85;21537;-76
2021/12/11 12:25:27;;;;;;;61.18;38.33;;;;;;;4.65;72.82;100069.88;2839822;83;21015;-72
2021/12/11 12:29:29;;;;;;;62.85;40.12;;;;;;;4.75;73.54;100074.12;2826960;84;21081;-72
2021/12/11 12:33:32;;;;;;;62.73;40.08;;;;;;;4.78;72.66;100073.92;2838927;83;21029;-73
2021/12/11 12:37:35;;;;;;;62.93;42.20;;;;;;;4.69;72.37;100077.14;2837904;83;21048;-73
2021/12/11 12:41:42;;;;;;;56.85;38.67;;;;;;;4.60;72.97;100089.53;2823220;84;21060;-72
2021/12/11 12:45:49;;;;;;;62.35;42.00;;;;;;;4.50;73.22;100090.55;2823314;84;21023;-73
2021/12/11 12:49:54;;;;;;;70.85;42.15;;;;;;;4.54;73.12;100086.82;2868391;82;21018;-73
2021/12/11 12:53:57;;;;;;;67.20;41.30;;;;;;;4.65;73.17;100089.64;2827055;84;21081;-75
2021/12/11 12:58:04;;;;;;;70.25;44.98;;;;;;;4.61;72.58;100090.77;2826606;84;21046;-75
2021/12/11 13:02:11;;;;;;;73.75;47.08;;;;;;;4.49;72.87;100096.77;2847710;83;21028;-75
2021/12/11 13:06:18;;;;;;;76.50;47.73;;;;;;;4.35;73.46;100105.03;2848642;83;21028;-73
2021/12/11 13:10:29;;;;;;;66.57;44.23;;;;;;;4.31;74.30;100115.34;2848229;83;21008;-72
2021/12/11 13:14:32;;;;;;;69.95;43.20;;;;;;;4.36;74.01;100121.20;2846220;83;21037;-74
2021/12/11 13:18:39;;;;;;;73.50;48.90;;;;;;;4.24;73.69;100127.18;2848002;83;20984;-70
2021/12/11 13:22:44;;;;;;;76.95;46.42;;;;;;;4.24;74.10;100121.46;2792053;83;21100;-75
2021/12/11 13:26:52;;;;;;;64.97;43.95;;;;;;;4.25;74.45;100128.87;2823711;84;21012;-74
2021/12/11 13:30:59;;;;;;;69.55;45.35;;;;;;;4.19;74.80;100143.23;2824730;84;20980;-77
2021/12/11 13:35:06;;;;;;;68.67;45.67;;;;;;;4.13;75.18;100156.30;2824378;84;21063;-74
2021/12/11 13:39:13;;;;;;;86.63;47.50;;;;;;;4.18;75.41;100152.08;2803155;84;21007;-76
2021/12/11 13:43:16;;;;;;;61.88;44.45;;;;;;;4.24;75.42;100162.27;2840194;84;21064;-73
2021/12/11 13:47:22;;;;;;;62.00;44.75;;;;;;;4.28;75.53;100169.05;2842141;84;21051;-73
2021/12/11 13:51:27;;;;;;;;;;;;;;;4.33;75.43;100174.52;2866869;82;21058;-73
2021/12/11 13:55:30;;;;;;;67.95;41.23;;;;;;;4.23;74.95;100186.05;2889005;82;20139;-70
2021/12/11 13:59:32;;;;;;;73.12;47.23;;;;;;;4.09;75.36;100187.67;2888796;82;21442;-71
2021/12/11 14:03:34;;;;;;;66.97;46.83;;;;;;;4.00;75.77;100190.83;2888165;82;21022;-75
2021/12/11 14:07:38;;;;;;;68.05;44.15;;;;;;;4.02;75.86;100206.52;2887395;82;21077;-76
2021/12/11 14:11:40;;;;;;;69.95;43.78;;;;;;;3.97;75.60;100207.63;2887704;82;21041;-76
2021/12/11 14:15:44;;;;;;;69.35;42.98;;;;;;;3.98;76.01;100208.50;2887605;82;21530;-74
2021/12/11 14:19:47;;;;;;;59.80;43.55;;;;;;;4.01;75.99;100221.48;2885777;82;21017;-76
2021/12/11 14:23:51;;;;;;;71.50;45.60;;;;;;;3.93;75.71;100226.30;2838345;84;20998;-76
2021/12/11 14:27:53;;;;;;;66.15;41.95;;;;;;;3.83;76.29;100217.61;2837685;84;21074;-74
2021/12/11 14:31:55;;;;;;;69.00;45.05;;;;;;;3.84;76.04;100227.69;2837745;84;21041;-77
2021/12/11 14:35:58;;;;;;;74.92;46.25;;;;;;;3.78;76.14;100234.13;2837656;84;21014;-77
2021/12/11 14:40:00;;;;;;;70.67;45.60;;;;;;;3.70;76.22;100239.80;2831549;83;21030;-76
2021/12/11 14:44:07;;;;;;;66.87;42.62;;;;;;;3.59;76.43;100247.41;2828851;84;21042;-75
2021/12/11 14:48:11;;;;;;;74.22;43.92;;;;;;;3.47;76.75;100247.59;2832017;82;21045;-74
2021/12/11 14:52:16;;;;;;;60.70;41.77;;;;;;;3.40;76.87;100253.64;2867124;82;21011;-75
2021/12/11 14:56:27;;;;;;;73.05;46.73;;;;;;;3.37;77.20;100255.59;2881687;82;20986;-73
2021/12/11 15:00:29;;;;;;;66.20;45.48;;;;;;;3.39;77.69;100257.68;2881447;82;21062;-73
2021/12/11 15:04:39;;;;;;;64.70;44.35;;;;;;;3.37;77.74;100267.44;2881595;82;20998;-71
2021/12/11 15:08:42;;;;;;;66.82;43.23;;;;;;;3.37;77.95;100268.75;2881403;82;21026;-70
2021/12/11 15:12:44;;;;;;;63.17;41.70;;;;;;;3.29;77.59;100272.61;2881592;82;21419;-69
2021/12/11 15:16:56;;;;;;;69.42;45.50;;;;;;;3.20;77.70;100273.09;2881383;82;20982;-71
2021/12/11 15:21:03;;;;;;;75.92;45.95;;;;;;;3.17;78.18;100286.40;2881383;82;21014;-72
2021/12/11 15:25:08;;;;;;;76.30;46.48;;;;;;;3.20;77.80;100286.69;2881392;82;20994;-71
2021/12/11 15:29:13;;;;;;;78.30;46.83;;;;;;;3.23;78.11;100293.97;2881369;82;21002;-71
2021/12/11 15:33:15;;;;;;;63.05;43.85;;;;;;;3.24;77.42;100300.05;2881419;82;21014;-72
2021/12/11 15:37:18;;;;;;;70.17;42.40;;;;;;;3.18;77.12;100315.70;2881480;82;20991;-73
2021/12/11 15:41:22;;;;;;;86.78;48.50;;;;;;;2.96;77.18;100317.23;2869548;82;21003;-72
2021/12/11 15:45:25;;;;;;;80.57;50.20;;;;;;;2.73;77.93;100327.55;2867226;83;20983;-72
2021/12/11 15:49:27;;;;;;;76.07;47.05;;;;;;;2.47;78.58;100336.22;2866969;83;21062;-75
2021/12/11 15:53:29;;;;;;;74.07;46.70;;;;;;;2.20;78.98;100342.67;2867232;81;21003;-71
2021/12/11 15:57:31;;;;;;;72.65;46.30;;;;;;;2.01;79.67;100351.86;2866796;83;21042;-72
2021/12/11 16:01:37;;;;;;;75.78;47.83;;;;;;;1.91;80.23;100359.74;2873434;81;21086;-70
2021/12/11 16:05:40;;;;;;;76.92;43.60;;;;;;;1.82;80.45;100360.55;2892872;81;20971;-71
2021/12/11 16:09:43;;;;;;;68.95;45.58;;;;;;;1.90;80.10;100364.60;2877711;82;20991;-68
2021/12/11 16:13:46;;;;;;;68.17;42.95;;;;;;;1.91;79.33;100362.37;2885795;82;21034;-67
2021/12/11 16:17:48;;;;;;;62.43;40.05;;;;;;;1.85;78.78;100367.42;2886052;82;21424;-68
2021/12/11 16:21:50;;;;;;;67.32;41.15;;;;;;;1.80;77.57;100379.89;2835577;82;21117;-67
2021/12/11 16:25:54;;;;;;;78.15;44.10;;;;;;;1.65;77.22;100391.91;2886805;82;21500;-69
2021/12/11 16:29:57;;;;;;;65.70;40.33;;;;;;;1.50;77.19;100391.64;2886802;82;21008;-68
2021/12/11 16:33:59;;;;;;;62.33;42.13;;;;;;;1.40;77.10;100408.69;2887046;82;21019;-69
2021/12/11 16:38:05;;;;;;;60.55;42.30;;;;;;;1.25;77.29;100411.02;2886748;82;20992;-69
2021/12/11 16:42:41;;;;;;;58.23;39.08;;;;;;;1.11;77.15;100421.20;2886895;82;21067;-69
2021/12/11 16:46:51;;;;;;;56.77;35.13;;;;;;;0.96;76.75;100423.51;2732395;87;21052;-69
2021/12/11 16:50:54;;;;;;;67.67;39.00;;;;;;;0.81;77.20;100422.36;2872386;82;21020;-69
2021/12/11 16:54:56;;;;;;;58.20;38.15;;;;;;;0.73;77.14;100426.19;2886321;82;21032;-69
2021/12/11 16:59:01;;;;;;;62.80;35.30;;;;;;;0.64;77.43;100440.48;2886063;82;21014;-69
2021/12/11 17:03:03;;;;;;;56.95;35.88;;;;;;;0.51;76.89;100441.41;2874242;82;21014;-69
2021/12/11 17:07:09;;;;;;;57.25;38.28;;;;;;;0.37;77.23;100450.61;2883129;82;20980;-70
2021/12/11 17:11:11;;;;;;;60.20;35.57;;;;;;;0.33;78.54;100458.18;2866667;83;21020;-69
2021/12/11 17:15:13;;;;;;;60.63;35.60;;;;;;;0.39;80.29;100466.27;2866547;83;21683;-69
2021/12/11 17:19:16;;;;;;;62.75;33.75;;;;;;;0.47;81.54;100471.23;2866416;82;21014;-69
2021/12/11 17:23:19;;;;;;;61.37;37.90;;;;;;;0.59;82.38;100465.55;2881516;82;20970;-70
2021/12/11 17:27:23;;;;;;;71.80;42.25;;;;;;;0.76;82.22;100475.81;2886533;82;20990;-69
2021/12/11 17:31:25;;;;;;;73.83;43.90;;;;;;;0.88;81.80;100481.91;2886244;82;21014;-69
2021/12/11 17:35:27;;;;;;;73.05;44.67;;;;;;;0.94;81.04;100493.92;2886514;82;20927;-70
2021/12/11 17:39:32;;;;;;;62.60;42.58;;;;;;;0.91;80.48;100502.73;2886153;82;21054;-70
2021/12/11 17:43:36;;;;;;;67.55;41.18;;;;;;;0.84;79.88;100506.52;2886693;82;21082;-69
2021/12/11 17:47:42;;;;;;;64.70;40.03;;;;;;;0.80;79.31;100501.00;2886495;82;20991;-69
2021/12/11 17:51:44;;;;;;;;;;;;;;;0.75;78.66;100512.08;2888846;82;21030;-69
2021/12/11 17:55:50;;;;;;;54.27;35.60;;;;;;;0.67;77.51;100522.84;2890662;82;20131;-69
2021/12/11 17:59:51;;;;;;;64.35;37.70;;;;;;;0.42;77.34;100516.75;2934374;81;21628;-69
2021/12/11 18:04:01;;;;;;;51.90;32.85;;;;;;;0.26;77.19;100533.43;2934421;81;21057;-68
2021/12/11 18:08:08;;;;;;;60.98;41.18;;;;;;;0.08;77.08;100533.62;2853321;81;21043;-68
2021/12/11 18:12:23;;;;;;;57.80;36.23;;;;;;;0.00;77.60;100538.28;2837619;84;21055;-69
2021/12/11 18:16:45;;;;;;;57.13;31.15;;;;;;;-0.01;77.81;100530.00;2837629;83;21003;-68
2021/12/11 18:20:56;;;;;;;52.48;33.53;;;;;;;-0.10;77.93;100541.63;2913261;81;21061;-68
2021/12/11 18:25:03;;;;;;;53.02;35.05;;;;;;;-0.24;78.17;100559.08;2868348;82;21022;-70
2021/12/11 18:29:10;;;;;;;55.92;37.60;;;;;;;-0.19;78.70;100566.34;2835225;84;21061;-70
2021/12/11 18:33:12;;;;;;;47.85;34.75;;;;;;;-0.06;79.10;100568.54;2837912;82;21031;-69
2021/12/11 18:37:31;;;;;;;51.02;33.55;;;;;;;-0.03;79.31;100577.59;2884479;82;21102;-72
2021/12/11 18:41:35;;;;;;;55.23;30.23;;;;;;;-0.15;80.69;100579.72;2886517;82;21074;-73
2021/12/11 18:45:42;;;;;;;44.25;29.07;;;;;;;-0.25;83.25;100590.05;2887204;82;21015;-75
2021/12/11 18:49:48;;;;;;;47.17;32.93;;;;;;;-0.18;84.34;100594.64;2886894;82;21002;-73
2021/12/11 18:53:55;;;;;;;46.73;31.97;;;;;;;-0.03;85.29;100607.23;2886753;82;20998;-74
2021/12/11 18:58:01;;;;;;;64.15;35.05;;;;;;;0.22;85.58;100612.11;2886795;82;21018;-72
2021/12/11 19:02:21;;;;;;;;;;;;;;;0.38;85.50;100622.44;2888691;82;21041;-72
2021/12/11 19:06:28;;;;;;;65.80;35.80;;;;;;;0.49;85.08;100623.41;2886799;82;20463;-73
2021/12/11 19:10:32;;;;;;;49.10;35.08;;;;;;;0.57;84.77;100621.80;2886726;82;20990;-72
2021/12/11 19:14:36;;;;;;;64.35;37.58;;;;;;;0.56;84.59;100626.64;2886910;82;21006;-74
2021/12/11 19:18:39;;;;;;;60.10;36.33;;;;;;;0.58;84.63;100634.45;2887039;82;20986;-72